Time;durP1;ratioP1;P1;durP2;ratioP2;P2;SDS_P1;SDS_P2;PMS_P1;PMS_P2;Temp;Humidity;BMP_temperature;BMP_pressure;BME280_temperature;BME280_humidity;BME280_pressure;Samples;Min_cycle;Max_cycle;Signal;HPM_P1;HPM_P2
2022/10/18 00:01:48;;;;;;;35.90;21.80;;;14.10;94.80;;;;;;5017704;28;20579;-88
2022/10/18 00:04:14;;;;;;;35.00;22.33;;;14.10;94.90;;;;;;5018994;28;20227;-89
2022/10/18 00:06:39;;;;;;;36.47;22.30;;;14.10;94.90;;;;;;5036449;28;20173;-89
2022/10/18 00:09:05;;;;;;;40.67;23.80;;;14.00;94.90;;;;;;5019528;28;20185;-89
2022/10/18 00:11:30;;;;;;;39.17;25.30;;;14.00;94.90;;;;;;5036678;28;20205;-89
2022/10/18 00:13:56;;;;;;;40.53;25.60;;;14.00;95.00;;;;;;5036862;28;20519;-89
2022/10/18 00:16:22;;;;;;;41.90;26.27;;;14.10;95.00;;;;;;5018784;28;20172;-89
2022/10/18 00:18:47;;;;;;;42.53;26.30;;;14.10;95.00;;;;;;5018673;28;20177;-89
2022/10/18 00:21:20;;;;;;;37.03;25.53;;;14.10;95.00;;;;;;5036327;28;20228;-90
2022/10/18 00:23:47;;;;;;;49.17;27.50;;;14.00;95.00;;;;;;5020286;28;20177;-89
2022/10/18 00:26:15;;;;;;;53.07;29.27;;;14.00;95.10;;;;;;5019250;28;20239;-89
2022/10/18 00:28:42;;;;;;;45.10;28.70;;;14.00;95.10;;;;;;5018835;28;20192;-89
2022/10/18 00:31:20;;;;;;;43.23;29.27;;;14.00;95.10;;;;;;5018335;28;20228;-89
2022/10/18 00:33:53;;;;;;;41.70;27.33;;;14.00;95.10;;;;;;5018549;28;20311;-89
2022/10/18 00:36:18;;;;;;;48.73;29.20;;;14.00;95.20;;;;;;5018831;28;20210;-89
2022/10/18 00:38:45;;;;;;;47.87;28.30;;;14.00;95.20;;;;;;5018873;28;20623;-90
2022/10/18 00:41:15;;;;;;;49.20;30.77;;;13.90;95.20;;;;;;5018695;28;20201;-90
2022/10/18 00:43:54;;;;;;;51.17;30.50;;;14.00;95.20;;;;;;5018394;28;20220;-90
2022/10/18 00:46:20;;;;;;;53.37;30.43;;;14.00;95.30;;;;;;5018524;28;20234;-89
2022/10/18 00:48:45;;;;;;;57.10;33.40;;;14.00;95.30;;;;;;5018262;28;20181;-89
2022/10/18 00:51:11;;;;;;;48.17;29.27;;;14.00;95.30;;;;;;5035905;28;20207;-89
2022/10/18 00:53:38;;;;;;;53.27;32.10;;;14.00;95.30;;;;;;5018068;28;20204;-89
2022/10/18 00:56:04;;;;;;;53.93;31.47;;;14.00;95.30;;;;;;5018753;28;20180;-89
2022/10/18 00:58:30;;;;;;;57.80;31.13;;;14.00;95.30;;;;;;5018425;28;20169;-90
2022/10/18 01:00:55;;;;;;;52.63;32.23;;;14.00;95.40;;;;;;5017839;28;20223;-89
2022/10/18 01:03:21;;;;;;;52.27;31.67;;;13.90;95.30;;;;;;5018120;28;20252;-89
2022/10/18 01:05:47;;;;;;;56.10;31.03;;;14.00;95.40;;;;;;5017695;28;20643;-90
2022/10/18 01:08:32;;;;;;;62.83;32.27;;;13.90;95.40;;;;;;5017774;28;20172;-90
2022/10/18 01:11:22;;;;;;;59.77;29.97;;;14.00;95.40;;;;;;5035516;28;20192;-89
2022/10/18 01:14:14;;;;;;;54.03;31.90;;;14.00;95.30;;;;;;5018239;28;20165;-89
2022/10/18 01:17:00;;;;;;;59.57;33.60;;;13.90;95.30;;;;;;5017874;28;20164;-89
2022/10/18 01:19:53;;;;;;;52.57;31.27;;;13.90;95.30;;;;;;5018652;28;20157;-89
2022/10/18 01:22:34;;;;;;;55.90;32.00;;;13.90;95.30;;;;;;5017971;28;20200;-90
2022/10/18 01:25:09;;;;;;;48.83;31.13;;;13.90;95.30;;;;;;5017855;28;20202;-89
2022/10/18 01:27:44;;;;;;;65.10;33.07;;;13.80;95.30;;;;;;5035352;28;20169;-90
2022/10/18 01:30:34;;;;;;;57.20;32.20;;;13.80;95.30;;;;;;5017474;28;20168;-89
2022/10/18 01:33:15;;;;;;;56.20;31.47;;;13.80;95.30;;;;;;5017532;28;20263;-89
2022/10/18 01:35:55;;;;;;;55.77;31.00;;;13.80;95.30;;;;;;5017363;28;20223;-90
2022/10/18 01:38:23;;;;;;;68.57;32.07;;;13.80;95.30;;;;;;5017624;28;20515;-90
2022/10/18 01:40:51;;;;;;;57.97;30.97;;;13.80;95.30;;;;;;5017233;28;20201;-89
2022/10/18 01:43:20;;;;;;;63.30;33.60;;;13.80;95.30;;;;;;5017403;28;20173;-89
2022/10/18 01:45:46;;;;;;;61.03;31.60;;;13.80;95.30;;;;;;5035378;28;20639;-90
2022/10/18 01:48:12;;;;;;;56.10;31.40;;;13.70;95.30;;;;;;5018522;28;20231;-90
2022/10/18 01:50:39;;;;;;;58.80;32.50;;;13.70;95.30;;;;;;5034352;28;20195;-89
2022/10/18 01:53:04;;;;;;;58.23;31.53;;;13.70;95.30;;;;;;5035029;28;20614;-90
2022/10/18 01:55:44;;;;;;;58.63;31.70;;;13.70;95.40;;;;;;5017309;28;20187;-90
2022/10/18 01:58:25;;;;;;;51.03;29.40;;;13.70;95.40;;;;;;5017100;28;20251;-90
2022/10/18 02:01:04;;;;;;;66.10;33.10;;;13.70;95.40;;;;;;5017285;28;20574;-90
2022/10/18 02:03:29;;;;;;;58.00;30.80;;;13.80;95.50;;;;;;5035194;28;20521;-89
2022/10/18 02:06:09;;;;;;;62.63;33.30;;;13.80;95.50;;;;;;5017757;28;20177;-90
2022/10/18 02:08:41;;;;;;;60.20;34.37;;;13.80;95.50;;;;;;5017102;28;20165;-90
2022/10/18 02:11:17;;;;;;;65.57;33.77;;;13.90;95.50;;;;;;5017129;28;20287;-89
2022/10/18 02:13:46;;;;;;;68.20;33.83;;;13.90;95.40;;;;;;5017538;28;20561;-90
2022/10/18 02:16:34;;;;;;;73.23;34.20;;;13.80;95.40;;;;;;5017124;28;20176;-90
2022/10/18 02:19:04;;;;;;;61.50;33.30;;;13.80;95.40;;;;;;5017366;28;20213;-90
2022/10/18 02:21:31;;;;;;;65.40;33.13;;;13.80;95.40;;;;;;5016601;28;20295;-89
2022/10/18 02:23:57;;;;;;;62.67;33.43;;;13.70;95.40;;;;;;5017628;28;20270;-89
2022/10/18 02:26:23;;;;;;;60.73;33.90;;;13.70;95.40;;;;;;5017324;28;20188;-90
2022/10/18 02:28:50;;;;;;;58.23;34.07;;;13.70;95.40;;;;;;5017542;28;20184;-90
2022/10/18 02:31:35;;;;;;;61.77;35.37;;;13.70;95.40;;;;;;5017046;28;20209;-89
2022/10/18 02:34:22;;;;;;;67.63;35.60;;;13.60;95.40;;;;;;5017704;28;20275;-90
2022/10/18 02:36:59;;;;;;;74.93;35.67;;;13.60;95.40;;;;;;5016928;28;20184;-90
2022/10/18 02:39:37;;;;;;;68.77;37.23;;;13.60;95.40;;;;;;5017188;28;20646;-90
2022/10/18 02:42:07;;;;;;;66.37;36.63;;;13.50;95.50;;;;;;5016804;28;20211;-90
2022/10/18 02:44:33;;;;;;;60.67;35.60;;;13.60;95.50;;;;;;5017294;28;20307;-89
2022/10/18 02:46:59;;;;;;;60.23;35.70;;;13.50;95.50;;;;;;5016892;28;20181;-89
2022/10/18 02:49:25;;;;;;;67.60;36.50;;;13.50;95.60;;;;;;5016883;28;20552;-89
2022/10/18 02:51:50;;;;;;;72.97;38.63;;;13.50;95.60;;;;;;5016728;28;20208;-90
2022/10/18 02:54:16;;;;;;;67.80;37.60;;;13.50;95.70;;;;;;5034302;28;20184;-90
2022/10/18 02:56:41;;;;;;;76.43;38.53;;;13.40;95.70;;;;;;5017097;28;20183;-89
2022/10/18 02:59:07;;;;;;;70.63;37.73;;;13.40;95.70;;;;;;5018742;28;20264;-89
2022/10/18 03:01:34;;;;;;;73.50;36.93;;;13.40;95.70;;;;;;5016389;28;20220;-89
2022/10/18 03:04:00;;;;;;;69.47;36.77;;;13.30;95.70;;;;;;5016524;28;20191;-89
2022/10/18 03:06:27;;;;;;;80.77;38.93;;;13.30;95.70;;;;;;5016871;28;20272;-90
2022/10/18 03:08:52;;;;;;;82.30;37.57;;;13.20;95.70;;;;;;5035047;28;20181;-89
2022/10/18 03:11:18;;;;;;;74.80;37.73;;;13.20;95.80;;;;;;5016852;28;20713;-89
2022/10/18 03:13:43;;;;;;;84.53;38.67;;;13.20;95.80;;;;;;5016972;28;20271;-89
2022/10/18 03:16:09;;;;;;;85.27;37.50;;;13.20;95.80;;;;;;5033733;28;20180;-90
2022/10/18 03:18:34;;;;;;;74.87;37.20;;;13.20;95.80;;;;;;5034275;28;20169;-90
2022/10/18 03:21:05;;;;;;;76.97;36.43;;;13.20;95.80;;;;;;5016184;28;20205;-90
2022/10/18 03:23:30;;;;;;;66.97;35.63;;;13.20;95.80;;;;;;5016501;28;20192;-89
2022/10/18 03:25:56;;;;;;;76.70;36.40;;;13.20;95.80;;;;;;5016522;28;20177;-90
2022/10/18 03:28:21;;;;;;;72.30;36.73;;;13.30;95.80;;;;;;5016393;28;20177;-89
2022/10/18 03:30:47;;;;;;;72.53;33.73;;;13.20;95.80;;;;;;5016563;28;20208;-89
2022/10/18 03:33:12;;;;;;;75.53;34.60;;;13.20;95.80;;;;;;5034392;28;20196;-90
2022/10/18 03:35:38;;;;;;;70.13;34.47;;;13.20;95.80;;;;;;5016450;28;20553;-89
2022/10/18 03:38:04;;;;;;;67.57;31.27;;;13.20;95.80;;;;;;5018764;28;20709;-89
2022/10/18 03:40:29;;;;;;;59.10;32.07;;;13.20;95.70;;;;;;5019507;28;20177;-89
2022/10/18 03:42:55;;;;;;;59.53;31.27;;;13.20;95.80;;;;;;5018751;28;20647;-90
2022/10/18 03:45:20;;;;;;;57.73;28.77;;;13.10;95.70;;;;;;5018999;28;20176;-90
2022/10/18 03:47:46;;;;;;;53.73;28.30;;;13.10;95.70;;;;;;5018713;28;20177;-90
2022/10/18 03:50:12;;;;;;;48.83;25.83;;;13.00;95.70;;;;;;5018645;28;20643;-90
2022/10/18 03:52:37;;;;;;;57.97;27.43;;;13.00;95.70;;;;;;5018819;28;20208;-90
2022/10/18 03:55:03;;;;;;;52.93;29.77;;;13.00;95.60;;;;;;5018834;28;20657;-90
2022/10/18 03:57:28;;;;;;;56.17;28.13;;;12.90;95.60;;;;;;5019242;28;20183;-90
2022/10/18 03:59:54;;;;;;;62.97;30.17;;;12.90;95.60;;;;;;5018595;28;20207;-90
2022/10/18 04:02:19;;;;;;;62.63;30.50;;;12.90;95.60;;;;;;5018926;28;20208;-90
2022/10/18 04:04:45;;;;;;;65.10;31.13;;;12.90;95.60;;;;;;5018389;28;20176;-89
2022/10/18 04:07:11;;;;;;;54.47;30.47;;;12.90;95.60;;;;;;5018760;28;20192;-89
2022/10/18 04:09:36;;;;;;;68.93;29.47;;;12.90;95.60;;;;;;5018839;28;20609;-90
2022/10/18 04:12:02;;;;;;;60.13;29.47;;;12.80;95.60;;;;;;5018399;28;20211;-89
2022/10/18 04:14:27;;;;;;;57.40;29.47;;;12.70;95.60;;;;;;5019589;28;20259;-90
2022/10/18 04:16:53;;;;;;;62.30;31.17;;;12.70;95.60;;;;;;5018491;28;20658;-89
2022/10/18 04:19:18;;;;;;;54.80;31.17;;;12.80;95.60;;;;;;5018549;28;20603;-90
2022/10/18 04:21:44;;;;;;;62.10;33.00;;;12.80;95.60;;;;;;5018834;28;20197;-90
2022/10/18 04:24:09;;;;;;;68.50;34.43;;;12.80;95.70;;;;;;5019046;28;20267;-89
2022/10/18 04:26:35;;;;;;;73.13;34.80;;;13.00;95.80;;;;;;5018481;28;20177;-90
2022/10/18 04:29:00;;;;;;;72.53;36.40;;;13.00;95.70;;;;;;5019194;28;20177;-89
2022/10/18 04:31:26;;;;;;;72.87;36.37;;;13.10;95.80;;;;;;5018667;28;20683;-90
2022/10/18 04:33:51;;;;;;;71.70;33.57;;;13.20;95.80;;;;;;5018839;28;20183;-89
2022/10/18 04:36:17;;;;;;;70.77;34.93;;;13.20;95.80;;;;;;5018924;28;20169;-89
2022/10/18 04:38:42;;;;;;;81.40;36.20;;;13.10;95.80;;;;;;5018901;28;20168;-89
2022/10/18 04:41:08;;;;;;;72.83;34.20;;;13.10;95.80;;;;;;5018533;28;20721;-89
2022/10/18 04:43:34;;;;;;;69.83;35.77;;;13.00;95.80;;;;;;5018569;28;20181;-89
2022/10/18 04:45:59;;;;;;;67.37;33.67;;;13.00;95.80;;;;;;5035617;28;20184;-89
2022/10/18 04:48:25;;;;;;;73.37;33.47;;;12.90;95.80;;;;;;5035497;28;20172;-90
2022/10/18 04:50:50;;;;;;;67.87;33.93;;;12.90;95.80;;;;;;5017784;28;20572;-89
2022/10/18 04:53:17;;;;;;;79.60;35.73;;;12.90;95.80;;;;;;5017989;28;20183;-89
2022/10/18 04:55:44;;;;;;;77.60;35.60;;;12.90;95.80;;;;;;5018185;28;20173;-89
2022/10/18 04:58:10;;;;;;;75.13;36.53;;;13.00;95.80;;;;;;5017820;28;20169;-90
2022/10/18 05:00:37;;;;;;;76.90;35.93;;;13.00;95.90;;;;;;5017748;28;20212;-89
2022/10/18 05:03:03;;;;;;;73.87;36.90;;;13.00;95.90;;;;;;5017956;28;20234;-90
2022/10/18 05:05:28;;;;;;;80.87;36.77;;;13.10;95.90;;;;;;5018169;28;20650;-89
2022/10/18 05:07:54;;;;;;;89.27;37.67;;;13.20;96.00;;;;;;5018457;28;20646;-89
2022/10/18 05:10:19;;;;;;;82.97;37.30;;;13.20;96.00;;;;;;5018775;28;20173;-89
2022/10/18 05:12:45;;;;;;;90.47;37.70;;;13.20;96.00;;;;;;5018546;28;20696;-90
2022/10/18 05:15:10;;;;;;;81.47;37.17;;;13.20;96.00;;;;;;5018606;28;20734;-89
2022/10/18 05:17:36;;;;;;;76.67;38.90;;;13.20;96.00;;;;;;5035959;28;20169;-90
2022/10/18 05:20:02;;;;;;;84.33;37.60;;;13.20;96.00;;;;;;5035265;28;20252;-89
2022/10/18 05:22:27;;;;;;;82.87;36.33;;;13.20;96.00;;;;;;5017746;28;20227;-89
2022/10/18 05:24:53;;;;;;;79.70;36.30;;;13.10;96.00;;;;;;5017218;28;20177;-89
2022/10/18 05:27:18;;;;;;;80.57;34.93;;;13.20;96.00;;;;;;5017976;28;20184;-89
2022/10/18 05:29:44;;;;;;;88.13;37.57;;;13.20;96.00;;;;;;5017496;28;20180;-89
2022/10/18 05:32:10;;;;;;;88.00;37.00;;;13.20;96.00;;;;;;5017282;28;20227;-89
2022/10/18 05:34:36;;;;;;;78.03;35.97;;;13.20;96.00;;;;;;5017937;28;20176;-90
2022/10/18 05:37:01;;;;;;;88.57;36.43;;;13.20;96.00;;;;;;5018014;28;20264;-91
2022/10/18 05:39:27;;;;;;;85.60;37.33;;;13.10;96.00;;;;;;5017459;28;20176;-90
2022/10/18 05:41:53;;;;;;;84.53;36.07;;;13.20;96.00;;;;;;5016657;28;20200;-89
2022/10/18 05:44:18;;;;;;;73.40;36.23;;;13.20;96.00;;;;;;5016405;28;20172;-90
2022/10/18 05:46:44;;;;;;;78.20;36.60;;;13.20;96.00;;;;;;5016981;28;20180;-89
2022/10/18 05:49:11;;;;;;;82.37;36.60;;;13.20;95.90;;;;;;5018107;28;20180;-89
2022/10/18 05:51:36;;;;;;;75.03;35.37;;;13.10;95.90;;;;;;5016702;28;20296;-90
2022/10/18 05:54:02;;;;;;;87.23;38.23;;;13.10;95.90;;;;;;5016929;28;20200;-89
2022/10/18 05:56:28;;;;;;;86.10;35.90;;;13.10;95.90;;;;;;5016932;28;20234;-89
2022/10/18 05:58:53;;;;;;;80.17;36.83;;;13.10;95.80;;;;;;5016748;28;20677;-89
2022/10/18 06:01:19;;;;;;;80.73;36.70;;;13.10;95.80;;;;;;5015619;28;20216;-89
2022/10/18 06:03:45;;;;;;;83.13;36.93;;;13.10;95.80;;;;;;5016278;28;20553;-89
2022/10/18 06:06:12;;;;;;;79.13;35.53;;;13.10;95.80;;;;;;5016358;28;20180;-89
2022/10/18 06:08:39;;;;;;;77.90;36.43;;;13.10;95.80;;;;;;5016461;28;20173;-89
2022/10/18 06:11:10;;;;;;;81.77;37.13;;;13.10;95.70;;;;;;5016139;28;20300;-89
2022/10/18 06:13:47;;;;;;;81.53;35.83;;;13.10;95.70;;;;;;5016259;28;20179;-89
2022/10/18 06:16:15;;;;;;;77.43;34.73;;;13.10;95.70;;;;;;5016430;28;20165;-89
2022/10/18 06:18:41;;;;;;;82.77;36.10;;;13.10;95.70;;;;;;5034336;28;20168;-89
2022/10/18 06:21:07;;;;;;;83.17;36.83;;;13.10;95.60;;;;;;5033825;28;20289;-89
2022/10/18 06:23:34;;;;;;;76.63;35.07;;;13.10;95.60;;;;;;5016667;28;20212;-90
2022/10/18 06:26:01;;;;;;;81.20;34.53;;;13.10;95.60;;;;;;5016268;28;20184;-89
2022/10/18 06:28:28;;;;;;;75.00;34.40;;;13.10;95.50;;;;;;5016598;28;20177;-89
2022/10/18 06:30:54;;;;;;;83.40;34.93;;;13.10;95.50;;;;;;5016482;28;20208;-89
2022/10/18 06:33:20;;;;;;;73.50;32.47;;;13.10;95.50;;;;;;5016197;28;20177;-89
2022/10/18 06:35:57;;;;;;;70.50;31.83;;;13.10;95.50;;;;;;5016285;28;20183;-89
2022/10/18 06:38:22;;;;;;;70.37;33.13;;;13.10;95.40;;;;;;5016092;28;20180;-90
2022/10/18 06:40:48;;;;;;;73.27;31.17;;;13.10;95.40;;;;;;5015956;28;20189;-89
2022/10/18 06:43:14;;;;;;;69.93;33.07;;;13.00;95.30;;;;;;5015883;28;20169;-89
2022/10/18 06:45:39;;;;;;;73.07;33.33;;;13.10;95.30;;;;;;5033511;28;20185;-89
2022/10/18 06:48:05;;;;;;;81.43;32.50;;;13.10;95.30;;;;;;5016729;28;20184;-89
2022/10/18 06:50:30;;;;;;;81.27;33.40;;;13.10;95.30;;;;;;5015788;28;20184;-89
2022/10/18 06:52:57;;;;;;;74.50;34.53;;;13.10;95.30;;;;;;5016003;28;20204;-89
2022/10/18 06:55:22;;;;;;;77.43;35.40;;;13.10;95.30;;;;;;5016032;28;20179;-89
2022/10/18 06:57:48;;;;;;;78.63;32.83;;;13.10;95.30;;;;;;5016148;28;20177;-90
2022/10/18 07:00:14;;;;;;;72.40;32.17;;;13.20;95.30;;;;;;5015868;28;20189;-89
2022/10/18 07:02:40;;;;;;;81.67;35.53;;;13.20;95.20;;;;;;5018640;28;20208;-89
2022/10/18 07:05:10;;;;;;;77.70;34.67;;;13.10;95.20;;;;;;5017554;28;20560;-89
2022/10/18 07:07:36;;;;;;;79.03;33.77;;;13.20;95.20;;;;;;5034487;28;20184;-89
2022/10/18 07:10:02;;;;;;;82.43;35.67;;;13.20;95.30;;;;;;5016582;28;20181;-89
2022/10/18 07:12:27;;;;;;;79.63;34.87;;;13.20;95.30;;;;;;5018420;28;20207;-89
2022/10/18 07:14:53;;;;;;;84.20;34.37;;;13.20;95.30;;;;;;5019496;28;20169;-89
2022/10/18 07:17:19;;;;;;;86.00;35.50;;;13.20;95.30;;;;;;5019272;28;20173;-89
2022/10/18 07:19:45;;;;;;;78.70;34.73;;;13.20;95.30;;;;;;5037460;28;20200;-89
2022/10/18 07:22:10;;;;;;;76.93;33.60;;;13.20;95.30;;;;;;5019620;28;20234;-89
2022/10/18 07:24:36;;;;;;;75.67;30.70;;;13.20;95.20;;;;;;5019482;28;20185;-89
2022/10/18 07:27:01;;;;;;;72.30;32.27;;;13.20;95.20;;;;;;5019839;28;20196;-90
2022/10/18 07:29:27;;;;;;;76.47;32.60;;;13.20;95.20;;;;;;5037941;28;20802;-89
2022/10/18 07:31:52;;;;;;;75.97;30.30;;;13.20;95.20;;;;;;5020008;28;20246;-89
2022/10/18 07:34:18;;;;;;;75.93;31.47;;;13.10;95.10;;;;;;5037389;28;20168;-90
2022/10/18 07:36:43;;;;;;;70.40;31.23;;;13.20;95.20;;;;;;5019378;28;20551;-90
2022/10/18 07:39:09;;;;;;;71.27;30.17;;;13.10;95.10;;;;;;5018972;28;20650;-89
2022/10/18 07:41:35;;;;;;;72.70;30.90;;;13.10;95.10;;;;;;5036761;28;20189;-90
2022/10/18 07:44:01;;;;;;;76.30;32.83;;;13.10;95.10;;;;;;5036988;28;20252;-90
2022/10/18 07:46:27;;;;;;;72.10;30.90;;;13.20;95.10;;;;;;5019073;28;20207;-90
2022/10/18 07:48:53;;;;;;;69.57;31.00;;;13.10;95.00;;;;;;5020596;28;20172;-90
2022/10/18 07:51:19;;;;;;;73.80;30.00;;;13.20;95.10;;;;;;5019783;28;20200;-90
2022/10/18 07:53:45;;;;;;;80.87;32.30;;;13.20;95.10;;;;;;5019192;28;20169;-90
2022/10/18 07:56:16;;;;;;;78.63;30.90;;;13.20;95.00;;;;;;5018720;28;20173;-89
2022/10/18 07:58:42;;;;;;;74.73;31.47;;;13.20;95.00;;;;;;5018836;28;20188;-89
2022/10/18 08:01:08;;;;;;;76.57;31.63;;;13.20;95.00;;;;;;5020769;28;20220;-88
2022/10/18 08:03:35;;;;;;;65.07;27.33;;;13.20;95.00;;;;;;5019448;28;20720;-89
2022/10/18 08:06:01;;;;;;;60.17;27.23;;;13.10;94.80;;;;;;5019181;28;20556;-89
2022/10/18 08:08:28;;;;;;;58.00;27.77;;;13.10;94.90;;;;;;5037376;28;20176;-90
2022/10/18 08:10:53;;;;;;;67.33;27.40;;;13.10;94.90;;;;;;5018696;28;20207;-89
2022/10/18 08:13:19;;;;;;;56.80;26.00;;;13.10;94.80;;;;;;5019587;28;20181;-90
2022/10/18 08:15:46;;;;;;;62.60;27.10;;;13.00;94.80;;;;;;5019154;28;20181;-89
2022/10/18 08:18:12;;;;;;;62.13;26.83;;;13.00;94.80;;;;;;5019656;28;20184;-89
2022/10/18 08:20:44;;;;;;;62.07;26.47;;;13.10;94.80;;;;;;5018982;28;20287;-89
2022/10/18 08:23:10;;;;;;;59.53;27.07;;;13.10;94.80;;;;;;5017886;28;20169;-88
2022/10/18 08:25:35;;;;;;;56.70;25.97;;;13.10;94.70;;;;;;5018279;28;20533;-89
2022/10/18 08:28:01;;;;;;;48.37;26.33;;;13.20;94.80;;;;;;5018028;28;20279;-89
2022/10/18 08:30:26;;;;;;;60.40;26.63;;;13.20;94.80;;;;;;5018419;28;20188;-89
2022/10/18 08:32:52;;;;;;;56.90;26.63;;;13.20;94.80;;;;;;5018958;28;20232;-89
2022/10/18 08:35:18;;;;;;;55.10;24.00;;;13.20;94.70;;;;;;5019416;28;20181;-88
2022/10/18 08:37:44;;;;;;;58.93;27.23;;;13.10;94.70;;;;;;5036763;28;20176;-89
2022/10/18 08:40:12;;;;;;;50.83;26.83;;;13.10;94.70;;;;;;5036796;28;20651;-89
2022/10/18 08:43:06;;;;;;;56.57;24.90;;;13.20;94.70;;;;;;5018487;28;20188;-89
2022/10/18 08:45:37;;;;;;;50.80;23.63;;;13.10;94.60;;;;;;5018950;28;20742;-89
2022/10/18 08:48:04;;;;;;;47.43;23.47;;;13.10;94.60;;;;;;5018661;28;20176;-88
2022/10/18 08:50:34;;;;;;;54.47;23.67;;;13.10;94.60;;;;;;5018263;28;20181;-88
2022/10/18 08:53:30;;;;;;;39.27;22.80;;;12.90;94.40;;;;;;5018604;28;20199;-88
2022/10/18 08:56:10;;;;;;;43.93;22.17;;;12.80;94.40;;;;;;5035636;28;20214;-89
2022/10/18 08:58:36;;;;;;;51.23;24.10;;;12.80;94.40;;;;;;5036036;28;20179;-88
2022/10/18 09:01:27;;;;;;;59.60;24.00;;;12.80;94.30;;;;;;5035423;28;20748;-89
2022/10/18 09:04:01;;;;;;;53.87;25.23;;;12.90;94.40;;;;;;5017729;28;20173;-89
2022/10/18 09:06:36;;;;;;;60.17;25.33;;;13.30;94.50;;;;;;5017307;28;20607;-89
2022/10/18 09:09:25;;;;;;;51.93;24.13;;;13.50;94.60;;;;;;5017779;28;20230;-89
2022/10/18 09:12:16;;;;;;;56.37;25.33;;;13.50;94.40;;;;;;5034968;28;20247;-89
2022/10/18 09:15:02;;;;;;;56.53;25.03;;;13.50;94.40;;;;;;5017816;28;20180;-88
2022/10/18 09:17:44;;;;;;;49.80;24.17;;;13.20;93.60;;;;;;5035309;28;20165;-88
2022/10/18 09:20:25;;;;;;;52.50;24.47;;;13.30;94.00;;;;;;5018587;28;20195;-88
2022/10/18 09:22:52;;;;;;;56.33;23.40;;;13.30;93.80;;;;;;5035252;28;20161;-89
2022/10/18 09:25:34;;;;;;;42.57;24.33;;;13.30;93.70;;;;;;5035426;28;20177;-89
2022/10/18 09:28:23;;;;;;;45.63;23.70;;;13.20;93.50;;;;;;5035225;28;20160;-89
2022/10/18 09:31:04;;;;;;;48.53;24.63;;;13.40;93.60;;;;;;5018472;28;20295;-88
2022/10/18 09:33:41;;;;;;;44.27;23.37;;;13.40;93.50;;;;;;5017448;28;20179;-88
2022/10/18 09:36:09;;;;;;;55.07;23.37;;;13.50;93.60;;;;;;5016602;28;20213;-88
2022/10/18 09:38:48;;;;;;;48.77;24.00;;;13.50;93.50;;;;;;5018072;28;20173;-88
2022/10/18 09:41:32;;;;;;;46.73;22.63;;;13.50;93.20;;;;;;5017412;28;20200;-88
2022/10/18 09:44:08;;;;;;;49.67;23.33;;;13.50;92.90;;;;;;5017201;28;20250;-88
2022/10/18 09:46:39;;;;;;;48.83;22.80;;;13.70;93.00;;;;;;5017288;28;20172;-89
2022/10/18 09:49:13;;;;;;;43.33;21.60;;;13.80;92.70;;;;;;5017223;28;20177;-88
2022/10/18 09:51:41;;;;;;;42.50;22.53;;;14.10;92.60;;;;;;5016435;28;20204;-89
2022/10/18 09:54:21;;;;;;;42.23;23.33;;;14.00;92.50;;;;;;5018604;28;20196;-89
2022/10/18 09:56:56;;;;;;;37.97;21.27;;;13.90;92.20;;;;;;5017267;28;20164;-89
2022/10/18 09:59:37;;;;;;;40.67;22.83;;;13.90;91.90;;;;;;5016299;28;20199;-89
2022/10/18 10:02:04;;;;;;;48.67;23.70;;;14.00;92.20;;;;;;5016249;28;20220;-88
2022/10/18 10:04:29;;;;;;;41.03;18.90;;;14.30;92.10;;;;;;5016355;28;20559;-90
2022/10/18 10:06:58;;;;;;;37.83;20.70;;;14.30;89.70;;;;;;5034014;28;20177;-89
2022/10/18 10:09:30;;;;;;;37.07;21.10;;;14.50;90.60;;;;;;5016632;28;20181;-89
2022/10/18 10:11:57;;;;;;;39.63;21.20;;;14.80;90.70;;;;;;5016383;28;20686;-88
2022/10/18 10:14:29;;;;;;;41.30;21.23;;;14.70;89.50;;;;;;5016334;28;20549;-89
2022/10/18 10:17:04;;;;;;;39.00;21.60;;;14.60;89.00;;;;;;5017135;28;20177;-88
2022/10/18 10:19:31;;;;;;;29.83;19.27;;;14.70;88.70;;;;;;5034190;28;20158;-88
2022/10/18 10:22:09;;;;;;;46.23;22.43;;;14.70;87.90;;;;;;5016426;28;20231;-88
2022/10/18 10:24:40;;;;;;;43.87;22.97;;;14.60;88.40;;;;;;5015838;28;20267;-88
2022/10/18 10:27:15;;;;;;;40.05;21.55;;;14.80;88.60;;;;;;5016441;28;20177;-88
2022/10/18 10:29:44;;;;;;;41.47;20.70;;;15.00;88.60;;;;;;5017193;28;20172;-89
2022/10/18 10:32:15;;;;;;;37.60;20.92;;;15.20;88.50;;;;;;5018536;28;20243;-88
2022/10/18 10:34:41;;;;;;;34.65;19.83;;;15.00;86.80;;;;;;5017496;28;20169;-88
2022/10/18 10:37:31;;;;;;;34.47;19.25;;;15.30;87.90;;;;;;5016565;28;20230;-87
2022/10/18 10:40:17;;;;;;;32.92;18.20;;;15.20;86.90;;;;;;5016459;28;20175;-87
2022/10/18 10:43:01;;;;;;;32.38;17.80;;;15.00;87.00;;;;;;5016492;28;20688;-88
2022/10/18 10:45:55;;;;;;;34.72;18.60;;;14.90;87.20;;;;;;5015787;28;20571;-87
2022/10/18 10:48:21;;;;;;;28.63;16.88;;;15.20;87.80;;;;;;5020632;28;20259;-87
2022/10/18 10:50:51;;;;;;;27.55;15.45;;;15.50;87.50;;;;;;5020715;28;20236;-87
2022/10/18 10:53:28;;;;;;;34.20;16.23;;;15.40;85.20;;;;;;5020596;28;20197;-87
2022/10/18 10:55:56;;;;;;;36.75;17.98;;;15.40;86.00;;;;;;5022467;28;20171;-88
2022/10/18 10:58:22;;;;;;;35.22;17.23;;;15.80;86.70;;;;;;5021277;28;20173;-88
2022/10/18 11:00:48;;;;;;;28.88;16.98;;;15.80;85.50;;;;;;5020820;28;20208;-88
2022/10/18 11:03:22;;;;;;;26.60;14.20;;;15.90;85.90;;;;;;5021358;28;20177;-87
2022/10/18 11:05:59;;;;;;;27.65;12.38;;;15.70;84.50;;;;;;5037364;28;20222;-87
2022/10/18 11:08:30;;;;;;;24.33;12.60;;;15.60;84.80;;;;;;5020142;28;20226;-88
2022/10/18 11:11:20;;;;;;;27.77;11.32;;;15.90;85.10;;;;;;5019631;28;20698;-88
2022/10/18 11:13:49;;;;;;;27.02;10.95;;;16.10;84.60;;;;;;5037859;28;20181;-89
2022/10/18 11:16:45;;;;;;;30.33;10.65;;;16.10;83.80;;;;;;5037407;28;20315;-91
2022/10/18 11:19:46;;;;;;;21.35;9.27;;;16.00;83.30;;;;;;5019432;28;20239;-89
2022/10/18 11:22:17;;;;;;;19.45;7.78;;;15.70;81.80;;;;;;5036995;28;20199;-88
2022/10/18 11:24:43;;;;;;;25.52;6.95;;;15.40;82.60;;;;;;5019164;28;20219;-88
2022/10/18 11:27:17;;;;;;;18.00;6.10;;;15.50;82.90;;;;;;5019280;28;20594;-88
2022/10/18 11:30:04;;;;;;;15.80;5.82;;;15.30;82.10;;;;;;5036568;28;20161;-89
2022/10/18 11:32:47;;;;;;;14.80;5.07;;;15.20;82.20;;;;;;5018636;28;20208;-88
2022/10/18 11:35:43;;;;;;;20.08;5.32;;;15.30;82.80;;;;;;5018599;28;20173;-89
2022/10/18 11:38:27;;;;;;;19.60;4.78;;;15.10;81.80;;;;;;5036275;28;20212;-89
2022/10/18 11:41:05;;;;;;;17.35;4.25;;;15.50;80.80;;;;;;5018489;28;20228;-88
2022/10/18 11:43:53;;;;;;;12.43;4.47;;;15.70;80.20;;;;;;5018376;28;20207;-90
2022/10/18 11:46:51;;;;;;;17.67;4.63;;;16.10;80.50;;;;;;5018383;28;20200;-89
2022/10/18 11:49:36;;;;;;;23.17;5.78;;;16.30;79.40;;;;;;5018654;28;20173;-90
2022/10/18 11:52:20;;;;;;;26.38;5.65;;;16.70;79.40;;;;;;5035793;28;20212;-89
2022/10/18 11:55:12;;;;;;;21.48;5.25;;;16.80;78.80;;;;;;5018280;28;20200;-90
2022/10/18 11:57:48;;;;;;;20.05;3.70;;;17.10;79.60;;;;;;5017091;28;20256;-88
2022/10/18 12:00:47;;;;;;;14.05;3.05;;;17.00;75.00;;;;;;5018265;28;20696;-89
2022/10/18 12:03:22;;;;;;;15.73;3.78;;;17.00;74.80;;;;;;5018230;28;20564;-89
2022/10/18 12:05:49;;;;;;;16.92;3.10;;;16.90;74.50;;;;;;5018468;28;20168;-90
2022/10/18 12:08:20;;;;;;;11.52;2.85;;;16.50;75.40;;;;;;5018083;28;20184;-89
2022/10/18 12:10:55;;;;;;;17.33;3.33;;;16.40;75.70;;;;;;5035695;28;20271;-89
2022/10/18 12:13:47;;;;;;;13.35;3.83;;;16.30;77.40;;;;;;5018191;28;20221;-88
2022/10/18 12:16:13;;;;;;;14.85;3.38;;;16.30;77.00;;;;;;5008397;28;20271;-89
2022/10/18 12:18:55;;;;;;;17.80;3.22;;;16.30;75.40;;;;;;5018647;28;20551;-89
2022/10/18 12:21:23;;;;;;;14.45;3.38;;;16.20;76.10;;;;;;5019272;28;20299;-88
2022/10/18 12:23:57;;;;;;;17.08;3.10;;;16.20;76.30;;;;;;5017939;28;20176;-87
2022/10/18 12:26:23;;;;;;;9.52;2.63;;;15.80;75.70;;;;;;5035405;28;20180;-87
2022/10/18 12:29:18;;;;;;;15.05;3.15;;;15.70;78.00;;;;;;5017740;28;20684;-87
2022/10/18 12:31:46;;;;;;;12.98;3.47;;;15.60;76.70;;;;;;5017852;28;20255;-86
2022/10/18 12:34:23;;;;;;;18.15;2.67;;;15.60;77.40;;;;;;5017971;28;20183;-87
2022/10/18 12:37:03;;;;;;;14.10;3.15;;;15.70;77.50;;;;;;5035993;28;20156;-88
2022/10/18 12:39:42;;;;;;;19.08;3.20;;;16.00;76.90;;;;;;5018533;28;20627;-88
2022/10/18 12:42:21;;;;;;;14.85;2.58;;;16.30;75.60;;;;;;5018854;28;20204;-90
2022/10/18 12:44:47;;;;;;;12.98;2.47;;;16.30;75.10;;;;;;5018286;28;20179;-89
2022/10/18 12:47:24;;;;;;;16.48;3.03;;;16.20;75.80;;;;;;5036442;28;20184;-88